sensor_id;sensor_type;location;lat;lon;timestamp;pressure;altitude;pressure_sealevel;temperature;humidity
79230;BME280;68663;49.122;17.544;2023-03-23T00:00:50;98991.00;;;22.81;52.66
79230;BME280;68663;49.122;17.544;2023-03-23T00:03:18;98999.44;;;22.81;52.89
79230;BME280;68663;49.122;17.544;2023-03-23T00:05:43;99002.22;;;22.84;52.49
79230;BME280;68663;49.122;17.544;2023-03-23T00:08:16;98985.66;;;22.86;52.31
79230;BME280;68663;49.122;17.544;2023-03-23T00:10:42;98993.75;;;22.84;52.65
79230;BME280;68663;49.122;17.544;2023-03-23T00:13:07;98988.53;;;22.83;52.91
79230;BME280;68663;49.122;17.544;2023-03-23T00:15:33;98989.41;;;22.80;52.75
79230;BME280;68663;49.122;17.544;2023-03-23T00:17:59;98984.16;;;22.78;53.07
79230;BME280;68663;49.122;17.544;2023-03-23T00:20:27;98991.00;;;22.81;52.81
79230;BME280;68663;49.122;17.544;2023-03-23T00:22:54;98978.84;;;22.84;52.59
79230;BME280;68663;49.122;17.544;2023-03-23T00:25:25;98990.56;;;22.82;52.93
79230;BME280;68663;49.122;17.544;2023-03-23T00:27:50;98986.16;;;22.81;52.83
79230;BME280;68663;49.122;17.544;2023-03-23T00:30:15;98982.16;;;22.79;53.02
79230;BME280;68663;49.122;17.544;2023-03-23T00:32:41;98979.31;;;22.79;53.15
79230;BME280;68663;49.122;17.544;2023-03-23T00:35:07;98970.47;;;22.80;53.07
79230;BME280;68663;49.122;17.544;2023-03-23T00:37:33;98984.50;;;22.84;52.71
79230;BME280;68663;49.122;17.544;2023-03-23T00:40:02;98977.28;;;22.83;53.12
79230;BME280;68663;49.122;17.544;2023-03-23T00:42:34;98976.91;;;22.81;53.06
79230;BME280;68663;49.122;17.544;2023-03-23T00:45:03;98983.34;;;22.81;53.14
79230;BME280;68663;49.122;17.544;2023-03-23T00:47:36;98979.72;;;22.81;53.26
79230;BME280;68663;49.122;17.544;2023-03-23T00:50:03;98970.41;;;22.84;53.15
79230;BME280;68663;49.122;17.544;2023-03-23T00:52:30;98968.38;;;22.84;52.77
79230;BME280;68663;49.122;17.544;2023-03-23T00:54:55;98970.78;;;22.86;53.17
79230;BME280;68663;49.122;17.544;2023-03-23T00:57:21;98966.78;;;22.83;53.12
79230;BME280;68663;49.122;17.544;2023-03-23T00:59:49;98963.59;;;22.81;53.15
79230;BME280;68663;49.122;17.544;2023-03-23T01:02:15;98963.66;;;22.78;53.34
79230;BME280;68663;49.122;17.544;2023-03-23T01:04:41;98965.22;;;22.79;53.14
79230;BME280;68663;49.122;17.544;2023-03-23T01:07:10;98958.75;;;22.82;52.92
79230;BME280;68663;49.122;17.544;2023-03-23T01:09:38;98955.94;;;22.82;53.14
79230;BME280;68663;49.122;17.544;2023-03-23T01:12:11;98958.41;;;22.80;53.56
79230;BME280;68663;49.122;17.544;2023-03-23T01:14:36;98954.38;;;22.77;53.30
79230;BME280;68663;49.122;17.544;2023-03-23T01:17:02;98960.47;;;22.76;53.33
79230;BME280;68663;49.122;17.544;2023-03-23T01:19:27;98960.81;;;22.78;53.40
79230;BME280;68663;49.122;17.544;2023-03-23T01:21:53;98954.34;;;22.81;53.19
79230;BME280;68663;49.122;17.544;2023-03-23T01:24:18;98951.53;;;22.81;53.46
79230;BME280;68663;49.122;17.544;2023-03-23T01:26:43;98957.16;;;22.81;53.47
79230;BME280;68663;49.122;17.544;2023-03-23T01:29:09;98958.81;;;22.78;53.49
79230;BME280;68663;49.122;17.544;2023-03-23T01:31:35;98958.00;;;22.78;53.33
79230;BME280;68663;49.122;17.544;2023-03-23T01:34:02;98961.22;;;22.80;53.27
79230;BME280;68663;49.122;17.544;2023-03-23T01:36:28;98953.13;;;22.82;52.98
79230;BME280;68663;49.122;17.544;2023-03-23T01:38:58;98954.72;;;22.83;53.19
79230;BME280;68663;49.122;17.544;2023-03-23T01:41:24;98951.53;;;22.81;53.09
79230;BME280;68663;49.122;17.544;2023-03-23T01:44:05;98952.38;;;22.78;53.12
79230;BME280;68663;49.122;17.544;2023-03-23T01:46:35;98949.56;;;22.78;53.23
79230;BME280;68663;49.122;17.544;2023-03-23T01:49:22;98953.97;;;22.79;53.38
79230;BME280;68663;49.122;17.544;2023-03-23T01:51:53;98945.09;;;22.80;52.87
79230;BME280;68663;49.122;17.544;2023-03-23T01:54:22;98947.50;;;22.82;53.19
79230;BME280;68663;49.122;17.544;2023-03-23T01:57:01;98953.56;;;22.80;53.36
79230;BME280;68663;49.122;17.544;2023-03-23T01:59:29;98950.78;;;22.77;53.52
79230;BME280;68663;49.122;17.544;2023-03-23T02:01:55;98934.72;;;22.74;53.84
79230;BME280;68663;49.122;17.544;2023-03-23T02:04:22;98936.31;;;22.75;53.41
79230;BME280;68663;49.122;17.544;2023-03-23T02:06:49;98929.38;;;22.79;53.12
79230;BME280;68663;49.122;17.544;2023-03-23T02:09:16;98929.00;;;22.81;53.37
79230;BME280;68663;49.122;17.544;2023-03-23T02:11:45;98931.41;;;22.79;53.40
79230;BME280;68663;49.122;17.544;2023-03-23T02:14:12;98933.88;;;22.77;53.38
79230;BME280;68663;49.122;17.544;2023-03-23T02:16:51;98927.00;;;22.78;53.43
79230;BME280;68663;49.122;17.544;2023-03-23T02:27:14;98938.66;;;22.80;53.35
79230;BME280;68663;49.122;17.544;2023-03-23T02:35:44;98930.22;;;22.80;53.27
79230;BME280;68663;49.122;17.544;2023-03-23T02:38:21;98937.81;;;22.83;53.01
79230;BME280;68663;49.122;17.544;2023-03-23T02:40:49;98936.22;;;22.82;53.27
79230;BME280;68663;49.122;17.544;2023-03-23T02:43:20;98939.88;;;22.79;53.47
79230;BME280;68663;49.122;17.544;2023-03-23T02:45:47;98950.78;;;22.77;53.41
79230;BME280;68663;49.122;17.544;2023-03-23T02:48:15;98951.22;;;22.75;53.78
79230;BME280;68663;49.122;17.544;2023-03-23T02:50:48;98954.75;;;22.79;53.33
79230;BME280;68663;49.122;17.544;2023-03-23T02:53:18;98951.53;;;22.81;53.11
79230;BME280;68663;49.122;17.544;2023-03-23T02:55:46;98945.09;;;22.80;53.43
79230;BME280;68663;49.122;17.544;2023-03-23T02:58:12;98946.72;;;22.78;53.45
79230;BME280;68663;49.122;17.544;2023-03-23T03:00:38;98950.78;;;22.77;53.47
79230;BME280;68663;49.122;17.544;2023-03-23T03:03:09;98949.56;;;22.78;53.58
79230;BME280;68663;49.122;17.544;2023-03-23T03:08:41;98949.88;;;22.83;53.19
79230;BME280;68663;49.122;17.544;2023-03-23T03:11:16;98951.09;;;22.82;53.35
79230;BME280;68663;49.122;17.544;2023-03-23T03:13:51;98948.72;;;22.81;53.36
79230;BME280;68663;49.122;17.544;2023-03-23T03:16:24;98945.50;;;22.79;53.39
79230;BME280;68663;49.122;17.544;2023-03-23T03:19:00;98949.13;;;22.79;53.59
79230;BME280;68663;49.122;17.544;2023-03-23T03:21:30;98948.72;;;22.81;53.33
79230;BME280;68663;49.122;17.544;2023-03-23T03:24:00;98952.25;;;22.85;53.08
79230;BME280;68663;49.122;17.544;2023-03-23T03:26:30;98952.69;;;22.83;53.35
79230;BME280;68663;49.122;17.544;2023-03-23T03:28:56;98956.38;;;22.80;53.30
79230;BME280;68663;49.122;17.544;2023-03-23T03:31:28;98946.72;;;22.78;53.65
79230;BME280;68663;49.122;17.544;2023-03-23T03:33:54;98950.78;;;22.77;53.56
79230;BME280;68663;49.122;17.544;2023-03-23T03:36:24;98949.13;;;22.79;53.35
79230;BME280;68663;49.122;17.544;2023-03-23T03:38:51;98950.31;;;22.82;53.06
79230;BME280;68663;49.122;17.544;2023-03-23T03:41:18;98961.22;;;22.80;53.64
79230;BME280;68663;49.122;17.544;2023-03-23T03:43:44;98951.56;;;22.77;53.54
79230;BME280;68663;49.122;17.544;2023-03-23T03:46:10;98959.22;;;22.77;53.75
79230;BME280;68663;49.122;17.544;2023-03-23T03:48:36;98949.97;;;22.76;53.68
79230;BME280;68663;49.122;17.544;2023-03-23T03:51:01;98966.84;;;22.80;53.56
79230;BME280;68663;49.122;17.544;2023-03-23T03:53:28;98960.34;;;22.83;53.35
79230;BME280;68663;49.122;17.544;2023-03-23T03:55:54;98950.31;;;22.82;53.59
79230;BME280;68663;49.122;17.544;2023-03-23T03:58:22;98958.41;;;22.80;53.54
79230;BME280;68663;49.122;17.544;2023-03-23T04:00:48;98957.56;;;22.79;53.54
79230;BME280;68663;49.122;17.544;2023-03-23T04:03:14;98942.69;;;22.79;53.80
79230;BME280;68663;49.122;17.544;2023-03-23T04:05:40;98947.50;;;22.82;53.56
79230;BME280;68663;49.122;17.544;2023-03-23T04:08:07;98946.25;;;22.83;53.46
79230;BME280;68663;49.122;17.544;2023-03-23T04:10:32;98946.69;;;22.81;53.76
79230;BME280;68663;49.122;17.544;2023-03-23T04:12:58;98941.91;;;22.78;53.55
79230;BME280;68663;49.122;17.544;2023-03-23T04:15:25;98946.72;;;22.78;53.92
79230;BME280;68663;49.122;17.544;2023-03-23T04:17:51;98948.41;;;22.75;54.27
79230;BME280;68663;49.122;17.544;2023-03-23T04:20:16;98930.22;;;22.80;53.38
79230;BME280;68663;49.122;17.544;2023-03-23T04:22:46;98931.81;;;22.81;53.47
79230;BME280;68663;49.122;17.544;2023-03-23T04:25:16;98945.09;;;22.80;53.83
79230;BME280;68663;49.122;17.544;2023-03-23T04:27:43;98958.00;;;22.78;53.90
79230;BME280;68663;49.122;17.544;2023-03-23T04:30:10;98956.03;;;22.75;53.98
79230;BME280;68663;49.122;17.544;2023-03-23T04:32:36;98948.41;;;22.75;54.04
79230;BME280;68663;49.122;17.544;2023-03-23T04:35:06;98953.59;;;22.77;53.89
79230;BME280;68663;49.122;17.544;2023-03-23T04:37:32;98945.09;;;22.80;53.70
79230;BME280;68663;49.122;17.544;2023-03-23T04:39:57;98951.53;;;22.81;53.92
79230;BME280;68663;49.122;17.544;2023-03-23T04:42:30;98953.16;;;22.78;53.87
79230;BME280;68663;49.122;17.544;2023-03-23T04:44:57;98947.16;;;22.76;54.96
79230;BME280;68663;49.122;17.544;2023-03-23T04:47:24;98956.41;;;22.77;54.42
79230;BME280;68663;49.122;17.544;2023-03-23T04:49:50;98937.06;;;22.79;54.20
79230;BME280;68663;49.122;17.544;2023-03-23T04:52:17;98943.88;;;22.81;54.02
79230;BME280;68663;49.122;17.544;2023-03-23T04:54:43;98951.09;;;22.82;54.11
79230;BME280;68663;49.122;17.544;2023-03-23T04:57:09;98964.84;;;22.80;54.16
79230;BME280;68663;49.122;17.544;2023-03-23T04:59:35;98960.41;;;22.79;54.34
79230;BME280;68663;49.122;17.544;2023-03-23T05:02:01;98956.78;;;22.79;54.73
79230;BME280;68663;49.122;17.544;2023-03-23T05:04:26;98944.31;;;22.80;54.43
79230;BME280;68663;49.122;17.544;2023-03-23T05:06:52;98952.75;;;22.80;54.38
79230;BME280;68663;49.122;17.544;2023-03-23T05:09:18;98952.34;;;22.81;54.25
79230;BME280;68663;49.122;17.544;2023-03-23T05:11:44;98953.16;;;22.78;54.32
79230;BME280;68663;49.122;17.544;2023-03-23T05:14:10;98959.66;;;22.75;54.44
79230;BME280;68663;49.122;17.544;2023-03-23T05:16:35;98965.72;;;22.74;54.58
79230;BME280;68663;49.122;17.544;2023-03-23T05:19:03;98967.69;;;22.77;54.54
79230;BME280;68663;49.122;17.544;2023-03-23T05:21:30;98970.88;;;22.79;54.56
79230;BME280;68663;49.122;17.544;2023-03-23T05:23:55;98972.50;;;22.80;54.46
79230;BME280;68663;49.122;17.544;2023-03-23T05:26:22;98980.53;;;22.81;54.36
79230;BME280;68663;49.122;17.544;2023-03-23T05:28:49;98985.34;;;22.81;54.35
79230;BME280;68663;49.122;17.544;2023-03-23T05:31:18;98996.25;;;22.79;54.41
79230;BME280;68663;49.122;17.544;2023-03-23T05:33:43;99003.09;;;22.78;54.21
79230;BME280;68663;49.122;17.544;2023-03-23T05:36:10;98993.41;;;22.79;54.47
79230;BME280;68663;49.122;17.544;2023-03-23T05:38:39;98979.75;;;22.77;54.38
79230;BME280;68663;49.122;17.544;2023-03-23T05:41:07;98981.78;;;22.77;54.38
79230;BME280;68663;49.122;17.544;2023-03-23T05:43:33;98984.16;;;22.78;54.41
79230;BME280;68663;49.122;17.544;2023-03-23T05:45:59;98975.69;;;22.82;54.20
79230;BME280;68663;49.122;17.544;2023-03-23T05:48:24;98986.09;;;22.85;54.11
79230;BME280;68663;49.122;17.544;2023-03-23T05:50:50;98986.09;;;22.85;54.19
79230;BME280;68663;49.122;17.544;2023-03-23T05:53:15;98998.59;;;22.84;53.99
79230;BME280;68663;49.122;17.544;2023-03-23T05:55:41;99004.66;;;22.82;54.25
79230;BME280;68663;49.122;17.544;2023-03-23T05:58:07;98999.06;;;22.79;54.30
79230;BME280;68663;49.122;17.544;2023-03-23T06:00:32;99008.75;;;22.78;54.31
79230;BME280;68663;49.122;17.544;2023-03-23T06:02:59;99004.69;;;22.79;54.16
79230;BME280;68663;49.122;17.544;2023-03-23T06:05:26;99009.13;;;22.80;53.94
79230;BME280;68663;49.122;17.544;2023-03-23T06:07:52;99013.47;;;22.84;53.86
79230;BME280;68663;49.122;17.544;2023-03-23T06:10:18;99012.69;;;22.84;54.08
79230;BME280;68663;49.122;17.544;2023-03-23T06:12:43;99009.50;;;22.82;53.86
79230;BME280;68663;49.122;17.544;2023-03-23T06:15:10;99007.91;;;22.81;54.11
79230;BME280;68663;49.122;17.544;2023-03-23T06:17:36;98998.22;;;22.82;54.06
79230;BME280;68663;49.122;17.544;2023-03-23T06:20:06;99007.03;;;22.84;53.95
79230;BME280;68663;49.122;17.544;2023-03-23T06:22:38;99004.59;;;22.86;53.81
79230;BME280;68663;49.122;17.544;2023-03-23T06:25:09;99008.63;;;22.85;53.79
79230;BME280;68663;49.122;17.544;2023-03-23T06:27:36;99015.50;;;22.84;53.85
79230;BME280;68663;49.122;17.544;2023-03-23T06:30:03;99009.50;;;22.82;53.86
79230;BME280;68663;49.122;17.544;2023-03-23T06:32:30;99004.66;;;22.82;53.85
79230;BME280;68663;49.122;17.544;2023-03-23T06:34:56;99003.00;;;22.85;53.83
79230;BME280;68663;49.122;17.544;2023-03-23T06:37:22;99000.19;;;22.85;53.68
79230;BME280;68663;49.122;17.544;2023-03-23T06:39:48;98996.56;;;22.84;53.95
79230;BME280;68663;49.122;17.544;2023-03-23T06:42:14;98994.19;;;22.83;54.12
79230;BME280;68663;49.122;17.544;2023-03-23T06:44:39;99009.50;;;22.82;53.95
79230;BME280;68663;49.122;17.544;2023-03-23T06:47:05;99016.75;;;22.79;54.22
79230;BME280;68663;49.122;17.544;2023-03-23T06:49:31;99012.75;;;22.80;54.03
79230;BME280;68663;49.122;17.544;2023-03-23T06:51:57;99007.91;;;22.81;53.93
79230;BME280;68663;49.122;17.544;2023-03-23T06:54:23;99002.28;;;22.81;53.98
79230;BME280;68663;49.122;17.544;2023-03-23T06:56:48;99007.94;;;22.77;54.10
79230;BME280;68663;49.122;17.544;2023-03-23T06:59:13;99016.81;;;22.76;54.01
79230;BME280;68663;49.122;17.544;2023-03-23T07:01:39;99020.88;;;22.75;53.93
79230;BME280;68663;49.122;17.544;2023-03-23T07:04:05;99021.59;;;22.79;53.90
79230;BME280;68663;49.122;17.544;2023-03-23T07:06:31;99013.53;;;22.81;54.10
79230;BME280;68663;49.122;17.544;2023-03-23T07:08:57;99016.38;;;22.81;54.35
79230;BME280;68663;49.122;17.544;2023-03-23T07:11:22;99021.19;;;22.80;54.44
79230;BME280;68663;49.122;17.544;2023-03-23T07:13:47;99030.06;;;22.79;54.17
79230;BME280;68663;49.122;17.544;2023-03-23T07:16:15;99036.56;;;22.76;53.68
79230;BME280;68663;49.122;17.544;2023-03-23T07:18:41;99034.22;;;22.71;48.03
79230;BME280;68663;49.122;17.544;2023-03-23T07:21:07;99026.69;;;22.64;45.81
79230;BME280;68663;49.122;17.544;2023-03-23T07:23:32;99038.38;;;22.63;45.90
79230;BME280;68663;49.122;17.544;2023-03-23T07:25:58;99039.97;;;22.64;46.15
79230;BME280;68663;49.122;17.544;2023-03-23T07:28:23;99038.38;;;22.63;46.72
79230;BME280;68663;49.122;17.544;2023-03-23T07:30:49;99037.16;;;22.64;47.37
79230;BME280;68663;49.122;17.544;2023-03-23T07:33:14;99044.03;;;22.63;48.30
79230;BME280;68663;49.122;17.544;2023-03-23T07:35:40;99039.63;;;22.62;48.66
79230;BME280;68663;49.122;17.544;2023-03-23T07:38:06;99048.50;;;22.60;49.01
79230;BME280;68663;49.122;17.544;2023-03-23T07:40:32;99044.09;;;22.59;49.44
79230;BME280;68663;49.122;17.544;2023-03-23T07:42:59;99051.75;;;22.59;49.78
79230;BME280;68663;49.122;17.544;2023-03-23T07:45:25;99048.94;;;22.59;50.13
79230;BME280;68663;49.122;17.544;2023-03-23T07:47:51;99056.53;;;22.62;49.88
79230;BME280;68663;49.122;17.544;2023-03-23T07:50:18;99045.63;;;22.64;49.73
79230;BME280;68663;49.122;17.544;2023-03-23T07:52:47;99043.53;;;22.68;49.81
79230;BME280;68663;49.122;17.544;2023-03-23T07:55:12;99041.09;;;22.70;50.13
79230;BME280;68663;49.122;17.544;2023-03-23T07:57:45;99045.50;;;22.71;50.40
79230;BME280;68663;49.122;17.544;2023-03-23T08:00:12;99055.97;;;22.70;50.74
79230;BME280;68663;49.122;17.544;2023-03-23T08:02:40;99046.72;;;22.70;50.98
79230;BME280;68663;49.122;17.544;2023-03-23T08:05:07;99059.22;;;22.69;51.07
79230;BME280;68663;49.122;17.544;2023-03-23T08:07:34;99046.72;;;22.70;50.88
79230;BME280;68663;49.122;17.544;2023-03-23T08:09:59;99047.88;;;22.72;51.09
79230;BME280;68663;49.122;17.544;2023-03-23T08:12:25;99053.91;;;22.74;51.07
79230;BME280;68663;49.122;17.544;2023-03-23T08:14:50;99052.25;;;22.77;50.89
79230;BME280;68663;49.122;17.544;2023-03-23T08:17:17;99050.66;;;22.76;51.43
79230;BME280;68663;49.122;17.544;2023-03-23T08:19:43;99051.88;;;22.75;51.74
79230;BME280;68663;49.122;17.544;2023-03-23T08:22:11;99047.09;;;22.72;52.02
79230;BME280;68663;49.122;17.544;2023-03-23T08:24:37;99045.88;;;22.73;52.15
79230;BME280;68663;49.122;17.544;2023-03-23T08:27:03;99053.09;;;22.74;52.08
79230;BME280;68663;49.122;17.544;2023-03-23T08:29:29;99062.78;;;22.73;52.28
79230;BME280;68663;49.122;17.544;2023-03-23T08:31:57;99056.28;;;22.76;51.98
79230;BME280;68663;49.122;17.544;2023-03-23T08:34:22;99055.44;;;22.79;51.71
79230;BME280;68663;49.122;17.544;2023-03-23T08:36:48;99059.00;;;22.83;51.63
79230;BME280;68663;49.122;17.544;2023-03-23T08:39:13;99053.75;;;22.85;51.63
79230;BME280;68663;49.122;17.544;2023-03-23T08:41:43;99056.94;;;22.87;51.83
79230;BME280;68663;49.122;17.544;2023-03-23T08:44:09;99063.38;;;22.87;52.00
79230;BME280;68663;49.122;17.544;2023-03-23T08:46:35;99055.34;;;22.86;51.98
79230;BME280;68663;49.122;17.544;2023-03-23T08:49:00;99058.53;;;22.88;51.86
79230;BME280;68663;49.122;17.544;2023-03-23T08:51:26;99055.28;;;22.90;51.60
79230;BME280;68663;49.122;17.544;2023-03-23T08:53:51;99049.94;;;22.95;51.50
79230;BME280;68663;49.122;17.544;2023-03-23T08:56:17;99045.47;;;22.98;51.52
79230;BME280;68663;49.122;17.544;2023-03-23T08:58:43;99050.31;;;22.97;51.83
79230;BME280;68663;49.122;17.544;2023-03-23T09:01:08;99055.94;;;22.97;51.80
79230;BME280;68663;49.122;17.544;2023-03-23T09:03:37;99056.75;;;22.98;51.69
79230;BME280;68663;49.122;17.544;2023-03-23T09:06:05;99057.09;;;23.00;51.89
79230;BME280;68663;49.122;17.544;2023-03-23T09:08:32;99056.66;;;23.01;51.66
79230;BME280;68663;49.122;17.544;2023-03-23T09:11:01;99058.63;;;23.04;51.56
79230;BME280;68663;49.122;17.544;2023-03-23T09:13:27;99054.22;;;23.03;51.78
79230;BME280;68663;49.122;17.544;2023-03-23T09:15:53;99058.25;;;23.02;52.24
79230;BME280;68663;49.122;17.544;2023-03-23T09:18:19;99055.44;;;23.02;52.41
79230;BME280;68663;49.122;17.544;2023-03-23T09:20:45;99058.25;;;23.02;52.31
79230;BME280;68663;49.122;17.544;2023-03-23T09:23:11;99054.59;;;23.05;52.20
79230;BME280;68663;49.122;17.544;2023-03-23T09:25:38;99048.16;;;23.05;52.24
79230;BME280;68663;49.122;17.544;2023-03-23T09:28:04;99054.16;;;23.07;52.11
79230;BME280;68663;49.122;17.544;2023-03-23T09:30:31;99045.25;;;23.08;51.78
79230;BME280;68663;49.122;17.544;2023-03-23T09:33:00;99058.13;;;23.09;51.78
79230;BME280;68663;49.122;17.544;2023-03-23T09:35:26;99060.16;;;23.09;51.89
79230;BME280;68663;49.122;17.544;2023-03-23T09:37:53;99062.63;;;23.07;52.17
79230;BME280;68663;49.122;17.544;2023-03-23T09:40:21;99067.47;;;23.06;51.88
79230;BME280;68663;49.122;17.544;2023-03-23T09:48:48;99053.34;;;23.06;51.76
79230;BME280;68663;49.122;17.544;2023-03-23T09:54:05;99045.25;;;23.08;51.90
79230;BME280;68663;49.122;17.544;2023-03-23T09:56:33;99037.25;;;23.07;52.63
79230;BME280;68663;49.122;17.544;2023-03-23T09:59:12;99046.13;;;23.05;52.85
79230;BME280;68663;49.122;17.544;2023-03-23T10:01:49;99038.91;;;23.04;52.71
79230;BME280;68663;49.122;17.544;2023-03-23T10:04:36;99041.34;;;23.02;52.87
79230;BME280;68663;49.122;17.544;2023-03-23T10:07:23;99048.16;;;23.05;52.38
79230;BME280;68663;49.122;17.544;2023-03-23T10:09:56;99032.03;;;23.05;52.46
79230;BME280;68663;49.122;17.544;2023-03-23T10:12:42;99034.06;;;23.05;52.89
79230;BME280;68663;49.122;17.544;2023-03-23T10:17:58;99020.38;;;23.03;52.54
79230;BME280;68663;49.122;17.544;2023-03-23T10:20:43;99025.59;;;23.05;52.22
79230;BME280;68663;49.122;17.544;2023-03-23T10:25:41;99018.66;;;23.09;52.27
79230;BME280;68663;49.122;17.544;2023-03-23T10:28:44;99002.53;;;23.10;52.43
79230;BME280;68663;49.122;17.544;2023-03-23T10:31:20;98999.66;;;23.13;52.22
79230;BME280;68663;49.122;17.544;2023-03-23T10:33:49;98997.63;;;23.14;52.17
79230;BME280;68663;49.122;17.544;2023-03-23T10:36:21;98984.69;;;23.16;51.99
79230;BME280;68663;49.122;17.544;2023-03-23T10:38:58;98979.41;;;23.18;51.80
79230;BME280;68663;49.122;17.544;2023-03-23T10:41:25;98987.00;;;23.22;52.41
79230;BME280;68663;49.122;17.544;2023-03-23T10:43:50;98981.34;;;23.22;52.08
79230;BME280;68663;49.122;17.544;2023-03-23T10:46:47;98976.50;;;23.22;52.15
79230;BME280;68663;49.122;17.544;2023-03-23T10:49:21;98984.53;;;23.24;52.14
79230;BME280;68663;49.122;17.544;2023-03-23T10:51:57;98969.66;;;23.23;52.17
79230;BME280;68663;49.122;17.544;2023-03-23T10:54:35;98967.63;;;23.24;52.17
79230;BME280;68663;49.122;17.544;2023-03-23T10:57:13;98967.25;;;23.22;52.41
79230;BME280;68663;49.122;17.544;2023-03-23T10:59:40;98968.13;;;23.18;52.04
79230;BME280;68663;49.122;17.544;2023-03-23T11:02:14;98964.88;;;23.20;52.10
79230;BME280;68663;49.122;17.544;2023-03-23T11:04:45;98961.69;;;23.18;50.49
79230;BME280;68663;49.122;17.544;2023-03-23T11:07:18;98956.84;;;23.18;48.95
79230;BME280;68663;49.122;17.544;2023-03-23T11:09:56;98956.84;;;23.18;46.56
79230;BME280;68663;49.122;17.544;2023-03-23T11:12:23;98952.06;;;23.15;45.41
79230;BME280;68663;49.122;17.544;2023-03-23T11:14:49;98951.28;;;23.15;44.20
79230;BME280;68663;49.122;17.544;2023-03-23T11:17:26;98946.44;;;23.15;43.52
79230;BME280;68663;49.122;17.544;2023-03-23T11:19:53;98940.44;;;23.13;42.66
79230;BME280;68663;49.122;17.544;2023-03-23T11:22:28;98949.31;;;23.12;40.31
79230;BME280;68663;49.122;17.544;2023-03-23T11:24:55;98946.94;;;23.10;38.91
79230;BME280;68663;49.122;17.544;2023-03-23T11:27:23;98947.00;;;23.07;37.79
79230;BME280;68663;49.122;17.544;2023-03-23T11:30:25;98936.97;;;23.06;36.66
79230;BME280;68663;49.122;17.544;2023-03-23T11:32:54;98951.06;;;23.06;36.16
79230;BME280;68663;49.122;17.544;2023-03-23T11:35:25;98935.44;;;23.01;36.17
79230;BME280;68663;49.122;17.544;2023-03-23T11:37:54;98941.94;;;22.98;35.66
79230;BME280;68663;49.122;17.544;2023-03-23T11:40:29;98935.94;;;22.96;35.37
79230;BME280;68663;49.122;17.544;2023-03-23T11:43:09;98936.00;;;22.93;35.67
79230;BME280;68663;49.122;17.544;2023-03-23T11:45:40;98926.41;;;22.90;35.33
79230;BME280;68663;49.122;17.544;2023-03-23T11:51:17;98922.41;;;22.87;35.50
79230;BME280;68663;49.122;17.544;2023-03-23T11:54:21;98924.06;;;22.85;35.02
79230;BME280;68663;49.122;17.544;2023-03-23T11:56:51;98926.91;;;22.85;34.43
79230;BME280;68663;49.122;17.544;2023-03-23T11:59:26;98916.84;;;22.84;34.77
79230;BME280;68663;49.122;17.544;2023-03-23T12:02:21;98916.84;;;22.84;34.19
79230;BME280;68663;49.122;17.544;2023-03-23T12:05:30;98910.50;;;22.80;33.74
79230;BME280;68663;49.122;17.544;2023-03-23T12:16:07;98918.13;;;22.79;34.23
79230;BME280;68663;49.122;17.544;2023-03-23T12:24:00;98901.22;;;22.79;34.02
79230;BME280;68663;49.122;17.544;2023-03-23T12:26:31;98900.41;;;22.79;33.86
79230;BME280;68663;49.122;17.544;2023-03-23T12:35:38;98876.78;;;22.73;34.69
79230;BME280;68663;49.122;17.544;2023-03-23T12:40:40;98868.31;;;22.73;36.43
79230;BME280;68663;49.122;17.544;2023-03-23T12:43:19;98869.91;;;22.74;36.81
79230;BME280;68663;49.122;17.544;2023-03-23T12:48:19;98861.03;;;22.75;37.61
79230;BME280;68663;49.122;17.544;2023-03-23T12:53:42;98867.81;;;22.78;38.59
79230;BME280;68663;49.122;17.544;2023-03-23T12:56:16;98857.34;;;22.78;38.93
79230;BME280;68663;49.122;17.544;2023-03-23T12:58:47;98861.75;;;22.79;39.20
79230;BME280;68663;49.122;17.544;2023-03-23T13:01:24;98859.75;;;22.80;39.61
79230;BME280;68663;49.122;17.544;2023-03-23T13:04:14;98854.13;;;22.80;39.86
79230;BME280;68663;49.122;17.544;2023-03-23T13:06:43;98858.53;;;22.81;40.22
79230;BME280;68663;49.122;17.544;2023-03-23T13:11:54;98851.69;;;22.78;39.87
79230;BME280;68663;49.122;17.544;2023-03-23T13:22:21;98832.38;;;22.80;40.33
79230;BME280;68663;49.122;17.544;2023-03-23T13:24:54;98842.84;;;22.80;40.77
79230;BME280;68663;49.122;17.544;2023-03-23T13:27:25;98833.16;;;22.81;40.41
79230;BME280;68663;49.122;17.544;2023-03-23T13:29:56;98822.28;;;22.79;39.94
79230;BME280;68663;49.122;17.544;2023-03-23T13:34:56;98828.00;;;22.76;37.99
79230;BME280;68663;49.122;17.544;2023-03-23T13:37:24;98820.34;;;22.76;37.72
79230;BME280;68663;49.122;17.544;2023-03-23T13:39:55;98824.75;;;22.77;38.84
79230;BME280;68663;49.122;17.544;2023-03-23T13:50:00;98823.59;;;22.75;38.82
79230;BME280;68663;49.122;17.544;2023-03-23T13:57:51;98818.03;;;22.71;37.50
79230;BME280;68663;49.122;17.544;2023-03-23T14:08:25;98816.88;;;22.69;37.13
79230;BME280;68663;49.122;17.544;2023-03-23T14:11:10;98812.47;;;22.68;37.04
79230;BME280;68663;49.122;17.544;2023-03-23T14:14:05;98816.50;;;22.67;36.81
79230;BME280;68663;49.122;17.544;2023-03-23T14:16:39;98816.50;;;22.67;37.53
79230;BME280;68663;49.122;17.544;2023-03-23T14:19:15;98809.66;;;22.68;37.11
79230;BME280;68663;49.122;17.544;2023-03-23T14:21:49;98809.28;;;22.66;36.99
79230;BME280;68663;49.122;17.544;2023-03-23T14:24:19;98808.50;;;22.65;36.48
79230;BME280;68663;49.122;17.544;2023-03-23T14:26:45;98807.69;;;22.65;36.81
79230;BME280;68663;49.122;17.544;2023-03-23T14:29:12;98812.91;;;22.66;38.69
79230;BME280;68663;49.122;17.544;2023-03-23T14:31:39;98819.78;;;22.65;36.62
79230;BME280;68663;49.122;17.544;2023-03-23T14:34:18;98808.50;;;22.65;37.11
79230;BME280;68663;49.122;17.544;2023-03-23T14:36:44;98818.19;;;22.64;36.13